createdAt,value
2023-01-08T00:02:45.212Z,0
2023-01-08T00:07:39.358Z,0
2023-01-08T00:12:39.502Z,0
2023-01-08T00:17:40.459Z,0
2023-01-08T00:22:39.425Z,0
2023-01-08T00:27:39.374Z,0
2023-01-08T00:32:50.468Z,0
2023-01-08T00:37:39.408Z,0
2023-01-08T00:42:39.479Z,0
2023-01-08T00:47:39.529Z,0
2023-01-08T00:52:39.460Z,0
2023-01-08T00:57:39.343Z,0
2023-01-08T01:02:39.447Z,0
2023-01-08T01:07:39.451Z,0
2023-01-08T01:12:39.326Z,0
2023-01-08T01:17:44.120Z,0
2023-01-08T01:22:39.845Z,0
2023-01-08T01:27:39.608Z,0
2023-01-08T01:32:46.033Z,0
2023-01-08T01:37:39.834Z,0
2023-01-08T01:42:39.661Z,0
2023-01-08T01:47:39.371Z,0
2023-01-08T01:52:39.514Z,0
2023-01-08T01:57:43.491Z,0
2023-01-08T02:02:39.344Z,0
2023-01-08T02:07:39.388Z,0
2023-01-08T02:17:39.330Z,0
2023-01-08T02:22:39.949Z,0
2023-01-08T02:27:42.059Z,0
2023-01-08T02:32:47.064Z,0
2023-01-08T02:37:42.495Z,0
2023-01-08T02:42:42.085Z,0
2023-01-08T02:47:41.774Z,0
2023-01-08T02:52:41.851Z,0
2023-01-08T02:57:41.795Z,0
2023-01-08T03:02:41.781Z,0
2023-01-08T03:07:41.761Z,0
2023-01-08T03:17:41.898Z,0
2023-01-08T03:22:41.956Z,0
2023-01-08T03:27:41.803Z,0
2023-01-08T03:32:53.518Z,0
2023-01-08T03:37:41.987Z,0
2023-01-08T03:42:42.026Z,0
2023-01-08T03:47:41.766Z,0
2023-01-08T03:52:42.026Z,0
2023-01-08T03:57:41.767Z,0
2023-01-08T04:02:42.029Z,0
2023-01-08T04:07:41.729Z,0
2023-01-08T04:12:41.755Z,0
2023-01-08T04:17:42.361Z,0
2023-01-08T04:22:41.777Z,0
2023-01-08T04:27:41.778Z,0
2023-01-08T04:32:59.517Z,0
2023-01-08T04:37:41.877Z,0
2023-01-08T04:42:41.782Z,0
2023-01-08T04:47:42.033Z,0
2023-01-08T04:52:42.076Z,0
2023-01-08T04:57:41.790Z,0
2023-01-08T05:02:42.363Z,0
2023-01-08T05:07:43.288Z,0
2023-01-08T05:12:41.762Z,0
2023-01-08T05:17:42.138Z,0
2023-01-08T05:22:41.829Z,0
2023-01-08T05:27:41.771Z,0
2023-01-08T05:32:44.639Z,0
2023-01-08T05:37:41.938Z,0
2023-01-08T05:42:41.859Z,0
2023-01-08T05:47:42.059Z,0
2023-01-08T05:52:42.439Z,0
2023-01-08T05:57:41.819Z,0
2023-01-08T06:02:41.874Z,0
2023-01-08T06:07:59.731Z,0
2023-01-08T06:12:41.782Z,0
2023-01-08T06:17:41.790Z,0
2023-01-08T06:22:42.179Z,256
2023-01-08T06:27:41.912Z,0
2023-01-08T06:32:48.145Z,0
2023-01-08T06:37:42.089Z,0
2023-01-08T06:42:41.875Z,0
2023-01-08T06:47:41.797Z,0
2023-01-08T06:52:41.949Z,0
2023-01-08T06:57:41.985Z,256
2023-01-08T07:02:41.968Z,259
2023-01-08T07:07:44.240Z,258
2023-01-08T07:12:42.038Z,264
2023-01-08T07:17:41.808Z,276
2023-01-08T07:22:41.917Z,269
2023-01-08T07:27:41.885Z,271
2023-01-08T07:32:46.030Z,284
2023-01-08T07:37:43.168Z,296
2023-01-08T07:42:43.014Z,315
2023-01-08T07:47:42.818Z,330
2023-01-08T07:52:42.875Z,345
2023-01-08T07:57:44.104Z,352
2023-01-08T08:02:43.107Z,355
2023-01-08T08:07:43.156Z,380
2023-01-08T08:12:50.685Z,376
2023-01-08T08:17:42.837Z,398
2023-01-08T08:22:42.822Z,390
2023-01-08T08:27:43.004Z,372
2023-01-08T08:32:59.035Z,372
2023-01-08T08:37:42.843Z,361
2023-01-08T08:42:43.048Z,382
2023-01-08T08:47:42.848Z,420
2023-01-08T08:52:42.881Z,439
2023-01-08T08:57:44.174Z,427
2023-01-08T09:02:42.898Z,425
2023-01-08T09:07:42.847Z,441
2023-01-08T09:12:42.843Z,456
2023-01-08T09:17:42.911Z,490
2023-01-08T09:22:42.922Z,570
2023-01-08T09:27:42.868Z,672
2023-01-08T09:32:45.015Z,744
2023-01-08T09:37:42.905Z,591
2023-01-08T09:42:42.964Z,578
2023-01-08T09:47:42.839Z,516
2023-01-08T09:52:43.842Z,556
2023-01-08T09:57:42.844Z,499
2023-01-08T10:02:42.880Z,379
2023-01-08T10:07:42.857Z,383
2023-01-08T10:12:42.939Z,432
2023-01-08T10:17:42.844Z,458
2023-01-08T10:22:42.825Z,449
2023-01-08T10:27:42.909Z,528
2023-01-08T10:32:44.281Z,480
2023-01-08T10:37:42.956Z,423
2023-01-08T10:42:43.038Z,404
2023-01-08T10:47:42.851Z,397
2023-01-08T10:52:43.056Z,400
2023-01-08T10:57:47.362Z,404
2023-01-08T11:02:43.788Z,436
2023-01-08T11:07:42.911Z,473
2023-01-08T11:12:42.949Z,470
2023-01-08T11:17:42.838Z,446
2023-01-08T11:22:42.859Z,446
2023-01-08T11:27:43.173Z,446
2023-01-08T11:32:53.052Z,498
2023-01-08T11:37:42.918Z,441
2023-01-08T11:42:43.390Z,413
2023-01-08T11:47:42.866Z,397
2023-01-08T11:52:42.857Z,404
2023-01-08T11:57:48.290Z,412
2023-01-08T12:02:43.073Z,367
2023-01-08T12:22:47.093Z,394
2023-01-08T12:27:57.251Z,387
2023-01-08T12:32:48.426Z,405
2023-01-08T12:37:47.101Z,423
2023-01-08T12:42:53.590Z,454
2023-01-08T12:47:47.189Z,460
2023-01-08T12:52:47.185Z,479
2023-01-08T12:57:47.096Z,466
2023-01-08T13:02:47.456Z,471
2023-01-08T13:07:47.078Z,442
2023-01-08T13:12:47.206Z,403
2023-01-08T13:18:03.896Z,393
2023-01-08T13:22:47.135Z,393
2023-01-08T13:27:47.106Z,434
2023-01-08T13:32:47.503Z,453
2023-01-08T13:37:47.211Z,476
2023-01-08T13:42:47.058Z,416
2023-01-08T13:47:47.633Z,385
2023-01-08T13:52:47.150Z,408
2023-01-08T13:57:47.433Z,422
2023-01-08T14:02:48.609Z,413
2023-01-08T14:07:47.152Z,360
2023-01-08T14:12:47.098Z,373
2023-01-08T14:17:47.077Z,355
2023-01-08T14:22:47.206Z,349
2023-01-08T14:27:47.083Z,333
2023-01-08T14:32:47.210Z,328
2023-01-08T14:37:47.150Z,318
2023-01-08T14:42:47.325Z,303
2023-01-08T14:47:47.216Z,284
2023-01-08T14:52:47.423Z,283
2023-01-08T14:57:47.082Z,277
2023-01-08T15:02:47.433Z,271
2023-01-08T15:07:47.395Z,271
2023-01-08T15:12:47.084Z,268
2023-01-08T15:17:47.631Z,268
2023-01-08T15:22:47.266Z,266
2023-01-08T15:27:47.509Z,265
2023-01-08T15:32:47.104Z,264
2023-01-08T15:37:49.937Z,256
2023-01-08T15:42:47.129Z,257
2023-01-08T15:47:47.146Z,0
2023-01-08T15:52:47.332Z,0
2023-01-08T15:57:47.209Z,0
2023-01-08T16:02:47.317Z,0
2023-01-08T16:07:47.296Z,0
2023-01-08T16:12:49.723Z,0
2023-01-08T16:17:47.236Z,0
2023-01-08T16:22:53.642Z,0
2023-01-08T16:27:47.322Z,0
2023-01-08T16:37:47.582Z,0
2023-01-08T16:42:47.240Z,0
2023-01-08T16:47:47.101Z,0
2023-01-08T16:52:47.360Z,0
2023-01-08T16:57:47.281Z,0
2023-01-08T17:02:47.245Z,0
2023-01-08T17:07:48.549Z,0
2023-01-08T17:12:47.107Z,0
2023-01-08T17:17:47.210Z,0
2023-01-08T17:22:47.248Z,0
2023-01-08T17:27:48.390Z,0
2023-01-08T17:32:47.144Z,0
2023-01-08T17:37:47.279Z,0
2023-01-08T17:42:48.749Z,0
2023-01-08T17:47:47.195Z,0
2023-01-08T17:52:47.192Z,0
2023-01-08T17:57:48.981Z,0
2023-01-08T18:02:47.220Z,0
2023-01-08T18:07:47.164Z,0
2023-01-08T18:12:47.527Z,0
2023-01-08T18:17:47.143Z,0
2023-01-08T18:22:47.202Z,0
2023-01-08T18:27:47.426Z,0
2023-01-08T18:32:47.152Z,0
2023-01-08T18:37:47.144Z,0
2023-01-08T18:42:56.222Z,0
2023-01-08T18:47:48.585Z,0
2023-01-08T18:52:47.134Z,0
2023-01-08T18:57:47.364Z,0
2023-01-08T19:02:47.292Z,0
2023-01-08T19:07:47.188Z,0
2023-01-08T19:12:53.327Z,0
2023-01-08T19:17:57.865Z,0
2023-01-08T19:22:47.188Z,0
2023-01-08T19:27:47.503Z,0
2023-01-08T19:33:09.395Z,0
2023-01-08T19:37:47.173Z,0
2023-01-08T19:42:47.180Z,0
2023-01-08T19:47:49.831Z,0
2023-01-08T19:52:47.170Z,0
2023-01-08T19:57:47.133Z,0
2023-01-08T20:02:48.389Z,0
2023-01-08T20:07:47.153Z,0
2023-01-08T20:12:47.286Z,0
2023-01-08T20:17:47.172Z,0
2023-01-08T20:22:47.322Z,0
2023-01-08T20:27:47.417Z,0
2023-01-08T20:32:47.180Z,0
2023-01-08T20:37:47.236Z,0
2023-01-08T20:42:47.190Z,0
2023-01-08T20:47:47.285Z,0
2023-01-08T20:52:47.348Z,0
2023-01-08T20:57:47.181Z,0
2023-01-08T21:02:47.253Z,0
2023-01-08T21:07:48.561Z,0
2023-01-08T21:12:47.262Z,0
2023-01-08T21:17:47.152Z,0
2023-01-08T21:22:47.218Z,0
2023-01-08T21:27:47.203Z,0
2023-01-08T21:32:47.453Z,0
2023-01-08T21:37:47.213Z,0
2023-01-08T21:42:47.172Z,0
2023-01-08T21:47:47.458Z,0
2023-01-08T21:52:47.219Z,0
2023-01-08T21:57:47.283Z,0
2023-01-08T22:02:47.241Z,0
2023-01-08T22:07:47.195Z,0
2023-01-08T22:12:48.471Z,0
2023-01-08T22:17:47.213Z,0
2023-01-08T22:22:47.297Z,0
2023-01-08T22:27:50.270Z,0
2023-01-08T22:32:47.812Z,0
2023-01-08T22:37:47.207Z,0
2023-01-08T22:42:48.650Z,0
2023-01-08T22:47:47.282Z,0
2023-01-08T22:52:47.275Z,0
2023-01-08T22:57:47.309Z,0
2023-01-08T23:02:47.534Z,0
2023-01-08T23:07:47.552Z,0
2023-01-08T23:12:47.252Z,0
2023-01-08T23:17:52.319Z,0
2023-01-08T23:22:47.484Z,0
2023-01-08T23:27:47.277Z,0
2023-01-08T23:32:47.529Z,0
2023-01-08T23:37:47.297Z,0
2023-01-08T23:42:47.374Z,0
2023-01-08T23:47:48.135Z,0
2023-01-08T23:52:47.197Z,0
2023-01-08T23:57:47.256Z,0
